createdAt,value
2018-09-13T00:02:07.442Z,18.89
2018-09-13T00:04:37.800Z,18.90
2018-09-13T00:07:08.160Z,18.82
2018-09-13T00:09:37.934Z,18.82
2018-09-13T00:12:07.816Z,18.90
2018-09-13T00:14:38.164Z,18.91
2018-09-13T00:17:08.470Z,18.95
2018-09-13T00:19:38.278Z,18.82
2018-09-13T00:22:08.180Z,18.72
2018-09-13T00:24:37.940Z,18.81
2018-09-13T00:27:07.729Z,18.77
2018-09-13T00:29:38.190Z,18.81
2018-09-13T00:32:08.523Z,18.80
2018-09-13T00:34:38.982Z,18.77
2018-09-13T00:37:09.418Z,18.91
2018-09-13T00:39:39.750Z,18.84
2018-09-13T00:42:09.540Z,18.71
2018-09-13T00:44:39.880Z,18.82
2018-09-13T00:50:46.062Z,18.73
2018-09-13T00:53:16.432Z,18.78
2018-09-13T00:55:46.758Z,18.94
2018-09-13T00:58:17.107Z,18.91
2018-09-13T01:00:47.418Z,18.86
2018-09-13T01:03:17.346Z,18.78
2018-09-13T01:05:47.474Z,18.75
2018-09-13T01:08:17.954Z,18.80
2018-09-13T01:10:47.719Z,18.80
2018-09-13T01:13:18.056Z,18.82
2018-09-13T01:15:48.460Z,18.59
2018-09-13T01:18:18.834Z,18.47
2018-09-13T01:20:48.674Z,18.52
2018-09-13T01:23:18.974Z,18.43
2018-09-13T01:25:48.730Z,18.40
2018-09-13T01:28:18.661Z,18.42
2018-09-13T01:30:48.401Z,18.21
2018-09-13T01:33:18.158Z,18.26
2018-09-13T01:35:47.985Z,18.28
2018-09-13T01:38:17.761Z,18.04
2018-09-13T01:40:47.685Z,17.91
2018-09-13T01:43:17.446Z,17.82
2018-09-13T01:45:47.189Z,17.94
2018-09-13T01:48:16.975Z,17.93
2018-09-13T01:50:46.719Z,18.10
2018-09-13T01:53:16.617Z,18.25
2018-09-13T01:55:46.351Z,18.35
2018-09-13T01:58:16.179Z,18.45
2018-09-13T02:00:45.951Z,18.39
2018-09-13T02:03:15.725Z,18.23
2018-09-13T02:09:21.217Z,18.28
2018-09-13T02:11:50.991Z,18.06
2018-09-13T02:14:20.737Z,17.92
2018-09-13T02:16:52.261Z,17.78
2018-09-13T02:19:22.027Z,17.71
2018-09-13T02:21:51.943Z,17.63
2018-09-13T02:24:22.067Z,17.56
2018-09-13T02:26:51.895Z,17.57
2018-09-13T02:29:21.645Z,17.55
2018-09-13T02:31:51.432Z,17.62
2018-09-13T02:34:21.306Z,17.53
2018-09-13T02:36:51.112Z,17.51
2018-09-13T02:39:20.909Z,17.48
2018-09-13T02:41:50.715Z,17.53
2018-09-13T02:44:20.525Z,17.57
2018-09-13T02:46:50.807Z,17.55
2018-09-13T02:49:20.712Z,17.53
2018-09-13T02:51:50.602Z,17.47
2018-09-13T02:54:20.421Z,17.56
2018-09-13T02:56:50.351Z,17.73
2018-09-13T02:59:20.290Z,17.58
2018-09-13T03:01:50.459Z,17.72
2018-09-13T03:04:20.425Z,17.65
2018-09-13T03:06:50.197Z,17.58
2018-09-13T03:09:19.969Z,17.67
2018-09-13T03:16:06.150Z,17.82
2018-09-13T03:18:35.929Z,17.81
2018-09-13T03:21:06.069Z,17.93
2018-09-13T03:23:36.007Z,17.83
2018-09-13T03:26:05.759Z,17.62
2018-09-13T03:28:35.639Z,17.80
2018-09-13T03:31:05.505Z,17.83
2018-09-13T03:33:35.315Z,17.72
2018-09-13T03:36:05.113Z,17.70
2018-09-13T03:38:34.865Z,17.75
2018-09-13T03:41:04.631Z,17.71
2018-09-13T03:43:34.439Z,17.74
2018-09-13T03:46:04.239Z,17.79
2018-09-13T03:48:33.957Z,17.77
2018-09-13T03:51:04.233Z,17.77
2018-09-13T03:53:34.027Z,17.80
2018-09-13T03:56:03.951Z,17.77
2018-09-13T03:58:33.681Z,17.80
2018-09-13T04:01:03.431Z,17.98
2018-09-13T04:03:33.808Z,17.86
2018-09-13T04:06:03.709Z,17.93
2018-09-13T04:08:33.598Z,17.91
2018-09-13T04:11:03.348Z,17.83
2018-09-13T04:13:33.177Z,17.93
2018-09-13T04:16:02.933Z,17.79
2018-09-13T04:18:32.667Z,17.73
2018-09-13T04:21:02.410Z,17.77
2018-09-13T04:23:32.208Z,17.68
2018-09-13T04:26:02.042Z,17.76
2018-09-13T04:28:31.874Z,17.73
2018-09-13T04:31:01.645Z,17.66
2018-09-13T04:33:31.381Z,17.63
2018-09-13T04:36:01.090Z,17.59
2018-09-13T04:38:30.880Z,17.57
2018-09-13T04:41:00.765Z,17.64
2018-09-13T04:43:30.599Z,17.70
2018-09-13T04:46:00.459Z,17.65
2018-09-13T04:48:30.221Z,17.75
2018-09-13T04:51:00.000Z,17.71
2018-09-13T04:53:29.813Z,17.74
2018-09-13T04:55:59.580Z,17.69
2018-09-13T04:58:29.426Z,17.72
2018-09-13T05:00:59.280Z,17.79
2018-09-13T05:03:29.862Z,17.74
2018-09-13T05:05:59.682Z,17.92
2018-09-13T05:08:29.454Z,17.91
2018-09-13T05:10:59.230Z,17.87
2018-09-13T05:13:28.971Z,17.76
2018-09-13T05:15:59.120Z,17.77
2018-09-13T05:18:28.896Z,17.83
2018-09-13T05:20:58.874Z,17.84
2018-09-13T05:23:28.670Z,17.87
2018-09-13T05:25:58.502Z,17.91
2018-09-13T05:28:30.732Z,17.92
2018-09-13T05:31:00.609Z,17.87
2018-09-13T05:33:30.507Z,17.95
2018-09-13T05:36:00.262Z,18.00
2018-09-13T05:38:30.056Z,18.10
2018-09-13T05:40:59.825Z,18.14
2018-09-13T05:43:29.600Z,18.10
2018-09-13T05:46:00.010Z,18.09
2018-09-13T05:48:29.770Z,18.00
2018-09-13T05:50:59.973Z,18.04
2018-09-13T05:53:29.908Z,17.83
2018-09-13T05:56:00.680Z,17.87
2018-09-13T05:58:31.899Z,17.84
2018-09-13T06:01:01.654Z,18.03
2018-09-13T06:03:31.424Z,18.23
2018-09-13T06:06:01.248Z,18.40
2018-09-13T06:08:31.067Z,18.56
2018-09-13T06:11:01.548Z,18.66
2018-09-13T06:13:31.886Z,18.69
2018-09-13T06:16:01.897Z,18.83
2018-09-13T16:19:34.751Z,21.06
2018-09-13T16:22:05.280Z,21.11
2018-09-13T16:24:35.690Z,21.13
2018-09-13T16:27:06.158Z,21.30
2018-09-13T16:29:36.711Z,21.34
2018-09-13T16:32:07.121Z,21.27
2018-09-13T16:34:37.970Z,21.16
2018-09-13T16:37:11.870Z,21.12
2018-09-13T16:39:47.666Z,21.24
2018-09-13T16:42:23.400Z,21.19
2018-09-13T16:44:56.018Z,21.00
2018-09-13T16:47:33.331Z,20.96
2018-09-13T16:50:04.230Z,20.95
2018-09-13T16:52:35.434Z,20.75
2018-09-13T16:55:06.662Z,20.74
2018-09-13T16:57:37.054Z,20.80
2018-09-13T17:00:07.808Z,20.74
2018-09-13T17:02:39.220Z,20.68
2018-09-13T17:05:09.552Z,20.59
2018-09-13T17:07:40.101Z,20.56
2018-09-13T17:10:10.678Z,20.54
2018-09-13T17:12:41.018Z,20.56
2018-09-13T17:15:11.714Z,20.51
2018-09-13T17:17:42.043Z,20.46
2018-09-13T17:20:12.531Z,20.42
2018-09-13T17:22:43.209Z,20.29
2018-09-13T17:25:13.919Z,20.19
2018-09-13T17:27:44.317Z,20.11
2018-09-13T17:30:14.776Z,20.04
2018-09-13T17:32:45.153Z,19.97
2018-09-13T17:35:15.545Z,19.69
2018-09-13T17:37:48.516Z,19.38
2018-09-13T17:40:21.301Z,19.02
2018-09-13T17:42:51.120Z,18.77
2018-09-13T17:45:20.953Z,18.69
2018-09-13T17:47:50.889Z,18.55
2018-09-13T17:50:20.988Z,18.49
2018-09-13T17:52:51.155Z,18.51
2018-09-13T17:55:21.013Z,18.67
2018-09-13T17:57:52.018Z,18.69
2018-09-13T18:00:21.888Z,18.48
2018-09-13T18:02:51.751Z,18.33
2018-09-13T18:05:21.638Z,18.10
2018-09-13T18:07:53.346Z,17.88
2018-09-13T18:10:23.218Z,17.70
2018-09-13T18:12:53.737Z,17.54
2018-09-13T18:15:23.612Z,17.76
2018-09-13T18:17:53.979Z,17.78
2018-09-13T18:20:26.385Z,17.80
2018-09-13T18:22:56.290Z,18.06
2018-09-13T18:25:26.443Z,18.14
2018-09-13T18:27:56.243Z,18.18
2018-09-13T18:30:26.617Z,18.31
2018-09-13T18:32:56.609Z,17.98
2018-09-13T18:35:26.479Z,17.96
2018-09-13T18:37:56.327Z,17.90
2018-09-13T18:40:26.178Z,18.15
2018-09-13T18:42:56.748Z,18.38
2018-09-13T18:45:26.559Z,18.48
2018-09-13T18:47:56.356Z,18.55
2018-09-13T18:50:26.735Z,18.71
2018-09-13T18:52:56.578Z,18.54
2018-09-13T18:55:26.473Z,18.41
2018-09-13T18:57:56.267Z,18.20
2018-09-13T19:00:26.133Z,18.47
2018-09-13T19:02:56.017Z,18.59
2018-09-13T19:05:25.786Z,18.56
2018-09-13T19:07:55.931Z,18.55
2018-09-13T19:10:26.694Z,18.65
2018-09-13T19:12:57.021Z,18.76
2018-09-13T19:15:27.381Z,18.64
2018-09-13T19:17:57.847Z,18.64
2018-09-13T19:20:28.570Z,18.82
2018-09-13T19:22:58.994Z,18.84
2018-09-13T19:25:29.488Z,18.57
2018-09-13T19:27:59.835Z,18.44
2018-09-13T19:30:30.796Z,18.01
2018-09-13T19:33:01.085Z,17.80
2018-09-13T19:35:30.925Z,17.59
2018-09-13T19:38:00.773Z,17.35
2018-09-13T19:40:30.811Z,17.21
2018-09-13T19:43:00.787Z,17.16
2018-09-13T19:45:30.614Z,17.07
2018-09-13T19:48:06.098Z,17.07
2018-09-13T19:50:41.835Z,17.03
2018-09-13T19:54:05.217Z,17.06
2018-09-13T19:56:35.161Z,17.03
2018-09-13T19:59:05.483Z,17.15
2018-09-13T20:01:35.394Z,17.19
2018-09-13T20:04:05.254Z,17.19
2018-09-13T20:06:35.144Z,17.16
2018-09-13T20:10:37.404Z,17.25
2018-09-13T20:13:07.281Z,17.00
2018-09-13T20:15:37.079Z,17.00
2018-09-13T20:18:07.247Z,16.93
2018-09-13T20:20:37.333Z,16.89
2018-09-13T20:23:07.237Z,16.97
2018-09-13T20:25:44.075Z,16.96
2018-09-13T20:28:13.909Z,16.92
2018-09-13T20:30:43.970Z,16.92
2018-09-13T20:33:13.838Z,17.10
2018-09-13T20:35:43.824Z,17.24
2018-09-13T20:38:13.679Z,17.40
2018-09-13T20:40:43.891Z,17.47
2018-09-13T20:43:17.850Z,17.57
2018-09-13T20:45:48.397Z,17.69
2018-09-13T20:48:18.389Z,17.81
2018-09-13T20:50:48.261Z,17.93
2018-09-13T20:53:18.103Z,17.91
2018-09-13T20:55:47.909Z,18.04
2018-09-13T20:58:17.755Z,17.69
2018-09-13T21:04:23.763Z,17.69
2018-09-13T21:06:53.591Z,17.87
2018-09-13T21:09:23.405Z,18.05
2018-09-13T21:11:53.536Z,18.07
2018-09-13T21:14:23.347Z,18.03
2018-09-13T21:21:08.084Z,18.17
2018-09-13T21:23:38.643Z,18.20
2018-09-13T21:26:09.574Z,18.20
2018-09-13T21:28:39.486Z,17.97
2018-09-13T21:31:10.173Z,18.07
2018-09-13T21:33:40.950Z,17.92
2018-09-13T21:36:12.955Z,17.97
2018-09-13T21:38:43.919Z,17.98
2018-09-13T21:41:14.548Z,17.47
2018-09-13T21:43:45.302Z,17.31
2018-09-13T21:46:15.068Z,17.35
2018-09-13T21:48:45.293Z,17.27
2018-09-13T21:51:15.463Z,17.40
2018-09-13T21:53:45.733Z,17.43
2018-09-13T21:56:15.785Z,17.52
2018-09-13T21:58:46.061Z,17.65
2018-09-13T22:01:16.290Z,17.82
2018-09-13T22:03:46.486Z,17.65
2018-09-13T22:06:16.281Z,17.81
2018-09-13T22:08:46.104Z,17.80
2018-09-13T22:11:16.097Z,17.67
2018-09-13T22:13:46.711Z,17.77
2018-09-13T22:16:16.699Z,17.66
2018-09-13T22:18:46.688Z,17.56
2018-09-13T22:24:52.960Z,17.35
2018-09-13T22:27:22.889Z,17.37
2018-09-13T22:29:52.803Z,17.11
2018-09-13T22:32:22.644Z,17.13
2018-09-13T22:34:52.648Z,17.12
2018-09-13T22:40:58.353Z,17.29
2018-09-13T22:43:32.608Z,17.28
2018-09-13T22:46:02.546Z,17.07
2018-09-13T22:48:32.463Z,16.92
2018-09-13T22:51:02.426Z,17.10
2018-09-13T22:53:32.551Z,16.96
2018-09-13T22:56:02.746Z,16.92
2018-09-13T22:58:33.332Z,16.92
2018-09-13T23:01:03.316Z,16.89
2018-09-13T23:03:33.202Z,16.78
2018-09-13T23:06:03.863Z,16.81
2018-09-13T23:08:33.915Z,16.85
2018-09-13T23:11:03.880Z,16.76
2018-09-13T23:13:33.727Z,16.80
2018-09-13T23:16:04.286Z,16.72
2018-09-13T23:18:34.649Z,16.54
2018-09-13T23:21:05.129Z,16.55
2018-09-13T23:23:35.224Z,16.60
2018-09-13T23:26:05.179Z,16.43
2018-09-13T23:28:35.111Z,16.43
2018-09-13T23:31:05.198Z,16.31
2018-09-13T23:33:35.204Z,16.34
2018-09-13T23:36:05.121Z,16.33
2018-09-13T23:38:35.479Z,16.46
2018-09-13T23:41:05.447Z,16.59
2018-09-13T23:43:35.463Z,16.48
2018-09-13T23:46:06.452Z,16.34
2018-09-13T23:48:36.299Z,16.29
2018-09-13T23:51:06.277Z,16.20
2018-09-13T23:53:36.206Z,16.16
2018-09-13T23:56:08.945Z,16.13
2018-09-13T23:58:39.050Z,16.12
